Time;durP1;ratioP1;P1;durP2;ratioP2;P2;SDS_P1;SDS_P2;PMS_P1;PMS_P2;Temp;Humidity;BMP_temperature;BMP_pressure;BME280_temperature;BME280_humidity;BME280_pressure;Samples;Min_cycle;Max_cycle;Signal;HPM_P1;HPM_P2
2022/05/18 00:01:33;;;;;;;;;;;23.10;81.50;;;;;;5030247;28;20297;-66
2022/05/18 00:03:59;;;;;;;;;;;23.10;82.40;;;;;;5029790;28;20823;-65
2022/05/18 00:06:24;;;;;;;;;;;23.00;82.30;;;;;;5028857;28;19917;-65
2022/05/18 00:08:50;;;;;;;;;;;23.00;81.90;;;;;;5028461;28;20290;-64
2022/05/18 00:11:17;;;;;;;;;;;23.00;82.60;;;;;;5031283;28;19986;-65
2022/05/18 00:13:44;;;;;;;;;;;23.00;83.20;;;;;;5027480;28;19913;-65
2022/05/18 00:16:09;;;;;;;;;;;22.90;82.80;;;;;;5020602;28;20493;-64
2022/05/18 00:18:35;;;;;;;;;;;22.90;84.30;;;;;;5030272;28;20049;-64
2022/05/18 00:21:01;;;;;;;;;;;22.80;84.00;;;;;;5026954;28;19921;-63
2022/05/18 00:23:27;;;;;;;;;;;22.80;85.00;;;;;;5030018;28;19916;-63
2022/05/18 00:25:52;;;;;;;;;;;22.80;85.50;;;;;;5028677;28;20387;-63
2022/05/18 00:28:18;;;;;;;;;;;22.70;85.80;;;;;;5032441;28;19913;-63
2022/05/18 00:30:43;;;;;;;;;;;22.60;85.90;;;;;;5033834;28;19921;-65
2022/05/18 00:33:09;;;;;;;;;;;22.60;85.90;;;;;;5031161;28;19914;-65
2022/05/18 00:35:36;;;;;;;;;;;22.60;86.50;;;;;;5033838;28;20401;-65
2022/05/18 00:38:03;;;;;;;;;;;22.60;86.50;;;;;;5034728;28;19909;-66
2022/05/18 00:40:28;;;;;;;;;;;22.50;87.10;;;;;;5029611;28;20324;-66
2022/05/18 00:42:54;;;;;;;;;;;22.50;87.20;;;;;;5030163;28;19917;-66
2022/05/18 00:45:20;;;;;;;;;;;22.40;89.00;;;;;;5030099;28;19917;-64
2022/05/18 00:47:45;;;;;;;;;;;22.40;89.80;;;;;;5031106;28;19909;-65
2022/05/18 00:50:20;;;;;;;;;;;22.30;89.70;;;;;;5032961;28;20030;-64
2022/05/18 00:52:57;;;;;;;;;;;22.30;90.20;;;;;;5030100;28;19917;-65
2022/05/18 00:55:24;;;;;;;;;;;22.30;90.80;;;;;;5033291;28;19921;-63
2022/05/18 00:57:57;;;;;;;;;;;22.20;90.70;;;;;;5031925;28;20674;-64
2022/05/18 01:00:23;;;;;;;;;;;22.20;91.00;;;;;;5033442;28;19920;-64
2022/05/18 01:02:52;;;;;;;;;;;22.20;90.90;;;;;;5030635;28;19922;-64
2022/05/18 01:05:20;;;;;;;;;;;22.10;91.50;;;;;;5034043;28;19916;-64
2022/05/18 01:07:49;;;;;;;;;;;22.10;91.40;;;;;;5029169;28;19917;-64
2022/05/18 01:10:15;;;;;;;;;;;22.00;92.50;;;;;;5031259;28;19917;-62
2022/05/18 01:12:40;;;;;;;;;;;22.00;91.90;;;;;;5029447;28;20396;-65
2022/05/18 01:15:10;;;;;;;;;;;22.00;92.30;;;;;;5029931;28;19917;-64
2022/05/18 01:17:37;;;;;;;;;;;22.00;92.40;;;;;;5032458;28;19913;-64
2022/05/18 01:20:14;;;;;;;;;;;22.00;92.60;;;;;;5032448;28;19916;-63
2022/05/18 01:22:52;;;;;;;;;;;21.90;92.70;;;;;;5029522;28;19917;-63
2022/05/18 01:25:36;;;;;;;;;;;21.90;92.80;;;;;;5029493;28;19913;-65
2022/05/18 01:28:02;;;;;;;;;;;21.90;93.90;;;;;;5032471;28;19917;-63
2022/05/18 01:30:29;;;;;;;;;;;21.80;93.40;;;;;;5028536;28;19982;-63
2022/05/18 01:32:56;;;;;;;;;;;21.90;93.70;;;;;;5030329;28;19936;-65
2022/05/18 01:35:23;;;;;;;;;;;21.80;93.60;;;;;;5033665;28;19909;-65
2022/05/18 01:37:49;;;;;;;;;;;21.70;94.40;;;;;;5029797;28;19917;-65
2022/05/18 01:40:41;;;;;;;;;;;21.70;94.50;;;;;;5031813;28;19917;-64
2022/05/18 01:43:24;;;;;;;;;;;21.70;94.70;;;;;;5010713;28;19925;-65
2022/05/18 01:45:51;;;;;;;;;;;21.60;95.10;;;;;;5010410;28;19959;-65
2022/05/18 01:48:18;;;;;;;;;;;21.60;95.20;;;;;;5009975;28;19928;-65
2022/05/18 01:50:44;;;;;;;;;;;21.50;95.30;;;;;;5010390;28;19917;-64
2022/05/18 01:53:09;;;;;;;;;;;21.50;95.20;;;;;;4994828;28;19909;-64
2022/05/18 01:55:35;;;;;;;;;;;21.50;95.50;;;;;;5010633;28;19960;-64
2022/05/18 01:58:01;;;;;;;;;;;21.40;95.60;;;;;;5024481;28;20309;-66
2022/05/18 02:00:28;;;;;;;;;;;21.40;95.70;;;;;;5016531;28;19958;-63
2022/05/18 02:02:53;;;;;;;;;;;21.40;95.70;;;;;;5025357;28;20580;-64
2022/05/18 02:05:19;;;;;;;;;;;21.30;96.50;;;;;;5010923;28;20437;-63
2022/05/18 02:07:44;;;;;;;;;;;21.30;96.50;;;;;;5010173;28;19924;-64
2022/05/18 02:10:11;;;;;;;;;;;21.30;97.00;;;;;;5009549;28;19924;-64
2022/05/18 02:12:36;;;;;;;;;;;21.30;97.10;;;;;;5009876;28;19918;-63
2022/05/18 02:15:03;;;;;;;;;;;21.10;97.70;;;;;;5010514;28;20437;-64
2022/05/18 02:17:30;;;;;;;;;;;21.10;97.40;;;;;;5010447;28;19909;-65
2022/05/18 02:19:57;;;;;;;;;;;21.10;97.90;;;;;;5015117;28;19921;-65
2022/05/18 02:22:23;;;;;;;;;;;21.10;97.80;;;;;;5032445;28;20267;-63
2022/05/18 02:24:49;;;;;;;;;;;21.00;98.60;;;;;;5028628;28;19913;-64
2022/05/18 02:27:14;;;;;;;;;;;20.90;98.40;;;;;;5031801;28;19921;-62
2022/05/18 02:29:40;;;;;;;;;;;20.80;98.60;;;;;;5030743;28;19917;-63
2022/05/18 02:32:05;;;;;;;;;;;20.80;99.40;;;;;;5032082;28;20012;-63
2022/05/18 02:34:31;;;;;;;;;;;20.60;99.90;;;;;;5030489;28;20328;-65
2022/05/18 02:36:56;;;;;;;;;;;20.60;99.60;;;;;;5030305;28;19920;-64
2022/05/18 02:39:22;;;;;;;;;;;20.50;99.60;;;;;;5027958;28;19995;-64
2022/05/18 02:41:48;;;;;;;;;;;20.50;99.90;;;;;;5031053;28;19928;-62
2022/05/18 02:44:14;;;;;;;;;;;20.40;99.90;;;;;;5030964;28;20378;-64
2022/05/18 02:46:39;;;;;;;;;;;20.40;99.90;;;;;;5031257;28;19919;-64
2022/05/18 02:49:05;;;;;;;;;;;20.30;99.90;;;;;;5027531;28;19925;-63
2022/05/18 02:51:30;;;;;;;;;;;20.30;99.80;;;;;;5028986;28;20336;-64
2022/05/18 02:53:56;;;;;;;;;;;20.30;99.90;;;;;;5031424;28;20000;-65
2022/05/18 02:56:24;;;;;;;;;;;20.20;99.90;;;;;;5051946;28;19909;-62
2022/05/18 02:58:50;;;;;;;;;;;20.10;99.90;;;;;;5031262;28;20416;-62
2022/05/18 03:01:20;;;;;;;;;;;20.10;99.90;;;;;;5027603;28;19917;-64
2022/05/18 03:03:45;;;;;;;;;;;20.00;99.90;;;;;;5039641;28;19929;-65
2022/05/18 03:06:12;;;;;;;;;;;19.90;99.90;;;;;;5031245;28;19913;-63
2022/05/18 03:08:39;;;;;;;;;;;19.80;99.90;;;;;;5039030;28;20377;-64
2022/05/18 03:11:04;;;;;;;;;;;19.70;99.90;;;;;;5050149;28;19917;-64
2022/05/18 03:13:30;;;;;;;;;;;19.70;99.90;;;;;;5033612;28;19913;-64
2022/05/18 03:15:56;;;;;;;;;;;19.60;99.90;;;;;;5030217;28;19917;-63
2022/05/18 03:18:21;;;;;;;;;;;19.60;99.90;;;;;;5028812;28;19928;-62
2022/05/18 03:23:34;;;;;;;;;;;19.60;99.90;;;;;;5031350;28;19962;-64
2022/05/18 03:26:03;;;;;;;;;;;19.60;99.90;;;;;;5027815;28;19909;-64
2022/05/18 03:28:29;;;;;;;;;;;19.50;99.90;;;;;;5029880;28;20626;-64
2022/05/18 03:30:55;;;;;;;;;;;19.50;99.90;;;;;;5030150;28;20009;-64
2022/05/18 03:33:22;;;;;;;;;;;19.50;99.90;;;;;;5022487;28;20071;-63
2022/05/18 03:35:48;;;;;;;;;;;19.40;99.90;;;;;;5045823;28;19909;-64
2022/05/18 03:38:14;;;;;;;;;;;19.40;99.90;;;;;;5031161;28;19909;-63
2022/05/18 03:40:39;;;;;;;;;;;19.30;99.90;;;;;;5026490;28;19919;-65
2022/05/18 03:43:05;;;;;;;;;;;19.30;99.90;;;;;;5028036;28;20328;-63
2022/05/18 03:45:33;;;;;;;;;;;19.20;99.90;;;;;;5027193;28;20008;-64
2022/05/18 03:47:59;;;;;;;;;;;19.20;99.90;;;;;;5029883;28;19917;-64
2022/05/18 03:50:24;;;;;;;;;;;19.10;99.90;;;;;;5050550;28;20293;-64
2022/05/18 03:52:50;;;;;;;;;;;19.00;99.90;;;;;;5027427;28;20378;-64
2022/05/18 03:55:15;;;;;;;;;;;19.00;99.90;;;;;;5026939;28;19921;-64
2022/05/18 03:57:41;;;;;;;;;;;18.90;99.90;;;;;;5029154;28;19964;-63
2022/05/18 04:00:07;;;;;;;;;;;18.90;99.90;;;;;;5026769;28;19914;-63
2022/05/18 04:02:34;;;;;;;;;;;18.90;99.90;;;;;;5029457;28;19909;-62
2022/05/18 04:04:59;;;;;;;;;;;18.80;99.90;;;;;;5027650;28;19948;-64
2022/05/18 04:07:25;;;;;;;;;;;18.80;99.90;;;;;;5028997;28;19948;-62
2022/05/18 04:09:50;;;;;;;;;;;18.70;99.90;;;;;;5036295;28;19917;-63
2022/05/18 04:12:16;;;;;;;;;;;18.60;99.90;;;;;;5031453;28;19963;-63
2022/05/18 04:14:41;;;;;;;;;;;18.60;99.90;;;;;;5029589;28;19909;-63
2022/05/18 04:17:07;;;;;;;;;;;18.50;99.90;;;;;;5030783;28;19909;-65
2022/05/18 04:19:32;;;;;;;;;;;18.50;99.90;;;;;;5035857;28;19913;-63
2022/05/18 04:21:58;;;;;;;;;;;18.30;99.90;;;;;;5033441;28;19927;-63
2022/05/18 04:24:23;;;;;;;;;;;18.30;99.90;;;;;;5026076;28;19916;-63
2022/05/18 04:26:49;;;;;;;;;;;18.20;99.90;;;;;;5030129;28;19917;-64
2022/05/18 04:29:14;;;;;;;;;;;18.20;99.90;;;;;;5030698;28;19917;-64
2022/05/18 04:31:41;;;;;;;;;;;18.20;99.90;;;;;;5029123;28;19987;-63
2022/05/18 04:34:06;;;;;;;;;;;18.20;99.90;;;;;;5027515;28;19920;-64
2022/05/18 04:36:32;;;;;;;;;;;18.20;99.90;;;;;;5033305;28;19913;-65
2022/05/18 04:38:58;;;;;;;;;;;18.10;99.90;;;;;;5026766;28;19929;-64
2022/05/18 04:41:23;;;;;;;;;;;18.10;99.90;;;;;;5030402;28;19916;-63
2022/05/18 04:43:48;;;;;;;;;;;18.10;99.90;;;;;;5026163;28;19913;-63
2022/05/18 04:46:14;;;;;;;;;;;18.10;99.90;;;;;;5027232;28;20369;-64
2022/05/18 04:48:41;;;;;;;;;;;18.00;99.90;;;;;;5029603;28;19921;-64
2022/05/18 04:51:06;;;;;;;;;;;18.10;99.90;;;;;;5027241;28;20004;-63
2022/05/18 04:53:35;;;;;;;;;;;18.10;99.90;;;;;;5028716;28;20018;-65
2022/05/18 04:56:01;;;;;;;;;;;18.10;99.90;;;;;;5030587;28;19910;-64
2022/05/18 04:58:27;;;;;;;;;;;18.20;99.90;;;;;;5025999;28;19920;-63
2022/05/18 05:00:57;;;;;;;;;;;18.20;99.90;;;;;;5033524;28;19932;-65
2022/05/18 05:03:23;;;;;;;;;;;18.20;99.90;;;;;;5041599;28;20382;-65
2022/05/18 05:05:48;;;;;;;;;;;18.20;99.90;;;;;;5029386;28;19963;-62
2022/05/18 05:08:14;;;;;;;;;;;18.10;99.90;;;;;;5031078;28;19909;-64
2022/05/18 05:10:39;;;;;;;;;;;18.20;99.90;;;;;;5026822;28;19978;-64
2022/05/18 05:13:05;;;;;;;;;;;18.10;99.90;;;;;;5025870;28;19953;-64
2022/05/18 05:15:31;;;;;;;;;;;18.20;99.90;;;;;;5032678;28;19921;-64
2022/05/18 05:17:56;;;;;;;;;;;18.20;99.90;;;;;;5035074;28;20389;-64
2022/05/18 05:20:22;;;;;;;;;;;18.20;99.90;;;;;;5046495;28;19913;-63
2022/05/18 05:22:47;;;;;;;;;;;18.30;99.90;;;;;;5029972;28;20336;-63
2022/05/18 05:25:14;;;;;;;;;;;18.30;99.90;;;;;;5042331;28;20431;-64
2022/05/18 05:27:40;;;;;;;;;;;18.30;99.90;;;;;;5042486;28;19952;-64
2022/05/18 05:30:05;;;;;;;;;;;18.30;99.90;;;;;;5033082;28;19959;-64
2022/05/18 05:32:32;;;;;;;;;;;18.40;99.90;;;;;;5033763;28;19921;-64
2022/05/18 05:34:58;;;;;;;;;;;18.40;99.90;;;;;;5033228;28;20377;-63
2022/05/18 05:37:23;;;;;;;;;;;18.40;99.90;;;;;;5030359;28;19913;-64
2022/05/18 05:39:49;;;;;;;;;;;18.40;99.90;;;;;;5028508;28;19917;-63
2022/05/18 05:42:14;;;;;;;;;;;18.40;99.90;;;;;;5029452;28;20009;-64
2022/05/18 05:44:40;;;;;;;;;;;18.50;99.90;;;;;;5033389;28;19910;-64
2022/05/18 05:47:08;;;;;;;;;;;18.50;99.90;;;;;;5033888;28;19921;-63
2022/05/18 05:49:33;;;;;;;;;;;18.50;99.90;;;;;;5041798;28;19921;-65
2022/05/18 05:51:59;;;;;;;;;;;18.50;99.90;;;;;;5037984;28;19925;-64
2022/05/18 05:54:26;;;;;;;;;;;18.50;99.90;;;;;;5030038;28;19920;-64
2022/05/18 05:56:51;;;;;;;;;;;18.50;99.90;;;;;;5044832;28;19913;-64
2022/05/18 05:59:19;;;;;;;;;;;18.50;99.90;;;;;;5032313;28;19931;-63
2022/05/18 06:01:45;;;;;;;;;;;18.60;99.90;;;;;;5030257;28;19974;-63
2022/05/18 06:04:10;;;;;;;;;;;18.60;99.90;;;;;;5030803;28;20396;-64
2022/05/18 06:06:37;;;;;;;;;;;18.60;99.90;;;;;;5028448;28;19960;-64
2022/05/18 06:09:07;;;;;;;;;;;18.60;99.90;;;;;;5028732;28;19995;-62
2022/05/18 06:11:33;;;;;;;;;;;18.60;99.90;;;;;;5031945;28;19963;-64
2022/05/18 06:13:59;;;;;;;;;;;18.70;99.80;;;;;;5029653;28;20016;-64
2022/05/18 06:16:24;;;;;;;;;;;18.60;99.70;;;;;;5032051;28;20007;-62
2022/05/18 06:18:50;;;;;;;;;;;18.60;99.70;;;;;;5031242;28;19914;-64
2022/05/18 06:21:16;;;;;;;;;;;18.70;99.70;;;;;;5041220;28;19918;-63
2022/05/18 06:23:42;;;;;;;;;;;18.70;99.60;;;;;;5030457;28;19910;-64
2022/05/18 06:26:07;;;;;;;;;;;18.70;99.60;;;;;;5029705;28;19955;-63
2022/05/18 06:28:36;;;;;;;;;;;18.80;99.60;;;;;;5043895;28;20081;-64
2022/05/18 06:31:02;;;;;;;;;;;18.80;99.60;;;;;;5034635;28;19936;-64
2022/05/18 06:33:27;;;;;;;;;;;18.80;99.30;;;;;;5028155;28;19913;-64
2022/05/18 06:35:53;;;;;;;;;;;18.90;99.30;;;;;;5036600;28;19921;-63
2022/05/18 06:38:19;;;;;;;;;;;18.90;99.40;;;;;;5032856;28;20360;-62
2022/05/18 06:43:29;;;;;;;;;;;19.00;99.20;;;;;;5043677;28;20030;-66
2022/05/18 06:45:55;;;;;;;;;;;19.10;99.10;;;;;;5021232;28;20033;-66
2022/05/18 06:48:21;;;;;;;;;;;19.20;99.00;;;;;;5029691;28;19929;-65
2022/05/18 06:50:47;;;;;;;;;;;19.20;98.80;;;;;;5036453;28;20079;-62
2022/05/18 06:53:12;;;;;;;;;;;19.30;98.60;;;;;;5033299;28;20441;-63
2022/05/18 06:55:38;;;;;;;;;;;19.30;98.50;;;;;;5033262;28;20500;-65
2022/05/18 06:58:03;;;;;;;;;;;19.30;98.20;;;;;;5039394;28;19988;-65
2022/05/18 07:00:29;;;;;;;;;;;19.30;98.30;;;;;;5041663;28;19951;-65
2022/05/18 07:02:54;;;;;;;;;;;19.30;97.70;;;;;;5047042;28;19952;-61
2022/05/18 07:05:20;;;;;;;;;;;19.30;97.90;;;;;;5044826;28;19916;-60
2022/05/18 07:07:45;;;;;;;;;;;19.30;97.80;;;;;;5037831;28;19917;-68
2022/05/18 07:10:11;;;;;;;;;;;19.40;97.90;;;;;;5025414;28;20108;-69
2022/05/18 07:12:37;;;;;;;;;;;19.40;97.80;;;;;;5027326;28;19920;-66
2022/05/18 07:15:04;;;;;;;;;;;19.50;97.90;;;;;;5031394;28;19932;-69
2022/05/18 07:17:29;;;;;;;;;;;19.50;97.70;;;;;;5038440;28;19917;-68
2022/05/18 07:19:55;;;;;;;;;;;19.60;97.70;;;;;;5034445;28;20332;-68
2022/05/18 07:22:20;;;;;;;;;;;19.60;97.60;;;;;;5032512;28;20004;-68
2022/05/18 07:24:46;;;;;;;;;;;19.60;97.50;;;;;;5032525;28;20373;-67
2022/05/18 07:27:11;;;;;;;;;;;19.70;97.40;;;;;;5032716;28;20059;-67
2022/05/18 07:29:37;;;;;;;;;;;19.70;97.40;;;;;;5039192;28;19912;-68
2022/05/18 07:32:08;;;;;;;;;;;19.80;97.30;;;;;;5035482;28;20035;-68
2022/05/18 07:34:34;;;;;;;;;;;19.80;97.10;;;;;;5031590;28;20340;-67
2022/05/18 07:37:00;;;;;;;;;;;19.80;96.90;;;;;;5034171;28;20289;-68
2022/05/18 07:39:28;;;;;;;;;;;19.80;97.00;;;;;;5028345;28;19921;-68
2022/05/18 07:41:58;;;;;;;;;;;19.90;96.80;;;;;;5035197;28;19917;-68
2022/05/18 07:44:24;;;;;;;;;;;20.00;96.50;;;;;;5035360;28;20011;-68
2022/05/18 07:46:50;;;;;;;;;;;20.10;96.80;;;;;;5036132;28;20067;-69
2022/05/18 07:49:16;;;;;;;;;;;20.10;96.60;;;;;;5030423;28;19947;-68
2022/05/18 07:51:43;;;;;;;;;;;20.20;96.60;;;;;;5037073;28;20325;-68
2022/05/18 07:54:09;;;;;;;;;;;20.20;96.40;;;;;;5036564;28;19921;-65
2022/05/18 07:56:34;;;;;;;;;;;20.20;96.10;;;;;;5037831;28;19913;-67
2022/05/18 07:59:00;;;;;;;;;;;20.30;96.30;;;;;;5037788;28;20024;-68
2022/05/18 08:01:26;;;;;;;;;;;20.30;96.30;;;;;;5029831;28;19919;-67
2022/05/18 08:03:51;;;;;;;;;;;20.30;96.30;;;;;;5037815;28;20296;-68
2022/05/18 08:06:17;;;;;;;;;;;20.40;96.20;;;;;;5038563;28;19917;-68
2022/05/18 08:08:42;;;;;;;;;;;20.40;96.10;;;;;;5034614;28;19913;-65
2022/05/18 08:16:36;;;;;;;;;;;20.60;96.20;;;;;;5033532;28;20011;-67
2022/05/18 08:19:03;;;;;;;;;;;20.70;95.50;;;;;;5035019;28;19980;-67
2022/05/18 08:21:28;;;;;;;;;;;20.70;95.60;;;;;;5034833;28;19917;-69
2022/05/18 08:23:54;;;;;;;;;;;20.80;95.40;;;;;;5035943;28;19917;-68
2022/05/18 08:26:20;;;;;;;;;;;20.80;95.20;;;;;;5035449;28;20328;-69
2022/05/18 08:28:45;;;;;;;;;;;20.80;95.40;;;;;;5037137;28;19913;-68
2022/05/18 08:31:12;;;;;;;;;;;20.90;95.50;;;;;;5036080;28;19944;-69
2022/05/18 08:33:38;;;;;;;;;;;21.00;95.40;;;;;;5034822;28;19925;-69
2022/05/18 08:36:05;;;;;;;;;;;21.10;95.40;;;;;;5034759;28;19913;-69
2022/05/18 08:38:30;;;;;;;;;;;21.20;95.10;;;;;;5037135;28;20326;-69
2022/05/18 08:41:04;;;;;;;;;;;21.20;95.20;;;;;;5037338;28;19916;-69
2022/05/18 08:43:34;;;;;;;;;;;21.20;95.30;;;;;;5030720;28;19917;-69
2022/05/18 08:46:11;;;;;;;;;;;21.30;95.30;;;;;;5038271;28;19913;-69
2022/05/18 08:48:45;;;;;;;;;;;21.30;95.40;;;;;;5034301;28;19983;-69
2022/05/18 08:51:25;;;;;;;;;;;21.40;95.50;;;;;;5040055;28;20011;-69
2022/05/18 08:53:53;;;;;;;;;;;21.50;95.30;;;;;;5038836;28;20012;-69
2022/05/18 08:56:24;;;;;;;;;;;21.60;95.20;;;;;;5039262;28;19975;-69
2022/05/18 08:58:51;;;;;;;;;;;21.50;95.10;;;;;;5038427;28;20022;-69
2022/05/18 09:01:17;;;;;;;;;;;21.60;95.20;;;;;;5038858;28;19916;-67
2022/05/18 09:03:44;;;;;;;;;;;21.70;95.10;;;;;;5036511;28;19920;-70
2022/05/18 09:06:10;;;;;;;;;;;21.70;94.70;;;;;;5043961;28;19916;-69
2022/05/18 09:08:37;;;;;;;;;;;21.70;94.60;;;;;;5038564;28;19920;-69
2022/05/18 09:11:07;;;;;;;;;;;21.80;94.80;;;;;;5021446;28;19925;-68
2022/05/18 09:13:33;;;;;;;;;;;21.80;94.50;;;;;;5040563;28;19920;-69
2022/05/18 09:16:10;;;;;;;;;;;21.80;94.40;;;;;;5039983;28;19913;-68
2022/05/18 09:18:45;;;;;;;;;;;21.80;94.50;;;;;;5036904;28;19956;-68
2022/05/18 09:21:11;;;;;;;;;;;21.80;94.50;;;;;;5036188;28;19917;-69
2022/05/18 09:23:36;;;;;;;;;;;21.80;94.50;;;;;;5037250;28;19917;-69
2022/05/18 09:26:05;;;;;;;;;;;21.90;94.40;;;;;;5039954;28;19924;-70
2022/05/18 09:28:52;;;;;;;;;;;21.90;94.30;;;;;;5037129;28;20293;-69
2022/05/18 09:31:17;;;;;;;;;;;21.90;94.30;;;;;;5040069;28;20301;-70
2022/05/18 09:34:01;;;;;;;;;;;21.90;94.40;;;;;;5039509;28;19913;-70
2022/05/18 09:36:32;;;;;;;;;;;21.90;94.40;;;;;;5036374;28;19939;-69
2022/05/18 09:39:03;;;;;;;;;;;22.00;94.40;;;;;;5040184;28;19939;-68
2022/05/18 09:41:36;;;;;;;;;;;22.00;94.20;;;;;;5034133;28;19914;-69
2022/05/18 09:44:02;;;;;;;;;;;22.10;94.50;;;;;;5036085;28;20373;-67
2022/05/18 09:46:29;;;;;;;;;;;22.20;94.40;;;;;;5036978;28;19913;-68
2022/05/18 09:49:18;;;;;;;;;;;22.20;94.00;;;;;;5037964;28;19986;-69
2022/05/18 09:51:44;;;;;;;;;;;22.20;94.10;;;;;;5035199;28;19956;-68
2022/05/18 09:54:09;;;;;;;;;;;22.20;94.00;;;;;;5038876;28;19955;-68
2022/05/18 09:56:44;;;;;;;;;;;22.20;94.10;;;;;;5039147;28;20275;-70
2022/05/18 09:59:13;;;;;;;;;;;22.30;94.10;;;;;;5037595;28;20380;-69
2022/05/18 10:10:15;;;;;;;;;;;22.50;93.50;;;;;;5038316;28;19924;-68
2022/05/18 10:12:43;;;;;;;;;;;22.50;93.60;;;;;;5042240;28;19924;-68
2022/05/18 10:15:22;;;;;;;;;;;22.50;93.50;;;;;;5038291;28;19913;-69
2022/05/18 10:17:53;;;;;;;;;;;22.60;92.90;;;;;;5036457;28;19917;-68
2022/05/18 10:20:21;;;;;;;;;;;22.70;93.10;;;;;;5037665;28;19912;-67
2022/05/18 10:22:48;;;;;;;;;;;22.80;93.00;;;;;;5036407;28;20523;-69
2022/05/18 10:25:22;;;;;;;;;;;22.80;93.30;;;;;;5037927;28;19913;-70
2022/05/18 10:27:48;;;;;;;;;;;22.90;93.30;;;;;;5036110;28;20014;-68
2022/05/18 10:30:18;;;;;;;;;;;22.90;93.30;;;;;;5037537;28;19937;-69
2022/05/18 10:32:56;;;;;;;;;;;23.00;92.90;;;;;;5033315;28;19933;-69
2022/05/18 10:35:30;;;;;;;;;;;23.00;93.20;;;;;;5038690;28;20301;-68
2022/05/18 10:38:00;;;;;;;;;;;23.00;93.10;;;;;;5037771;28;19916;-68
2022/05/18 10:40:26;;;;;;;;;;;23.10;92.20;;;;;;5035919;28;19959;-67
2022/05/18 10:42:54;;;;;;;;;;;23.10;92.20;;;;;;5040513;28;19924;-69
2022/05/18 10:45:31;;;;;;;;;;;23.00;92.10;;;;;;5036732;28;19912;-69
2022/05/18 10:48:02;;;;;;;;;;;23.00;92.20;;;;;;5040319;28;19913;-69
2022/05/18 10:50:32;;;;;;;;;;;23.10;92.20;;;;;;5035588;28;19917;-68
2022/05/18 10:53:00;;;;;;;;;;;23.10;92.20;;;;;;5038154;28;19913;-68
2022/05/18 10:55:28;;;;;;;;;;;23.20;92.00;;;;;;5039011;28;19912;-68
2022/05/18 10:57:54;;;;;;;;;;;23.20;92.10;;;;;;5036798;28;19921;-68
2022/05/18 11:00:20;;;;;;;;;;;23.30;91.20;;;;;;5037164;28;19919;-68
2022/05/18 11:02:59;;;;;;;;;;;23.40;90.20;;;;;;5037107;28;19917;-68
2022/05/18 11:05:39;;;;;;;;;;;23.40;90.60;;;;;;5035524;28;20077;-68
2022/05/18 11:08:07;;;;;;;;;;;23.40;90.90;;;;;;5035320;28;19939;-67
2022/05/18 11:10:37;;;;;;;;;;;23.40;90.80;;;;;;5036462;28;19921;-68
2022/05/18 11:13:10;;;;;;;;;;;23.40;91.10;;;;;;5034013;28;19916;-68
2022/05/18 11:15:44;;;;;;;;;;;23.50;91.10;;;;;;5037890;28;19921;-68
2022/05/18 11:18:09;;;;;;;;;;;23.50;91.10;;;;;;5036326;28;19917;-67
2022/05/18 11:20:46;;;;;;;;;;;23.60;91.10;;;;;;5035089;28;19920;-69
2022/05/18 11:23:14;;;;;;;;;;;23.60;90.60;;;;;;5037886;28;19913;-67
2022/05/18 11:25:58;;;;;;;;;;;23.70;90.70;;;;;;5034275;28;20036;-68
2022/05/18 11:28:30;;;;;;;;;;;23.80;90.80;;;;;;5034428;28;19920;-68
2022/05/18 11:31:04;;;;;;;;;;;23.80;90.50;;;;;;5034169;28;20373;-67
2022/05/18 11:33:56;;;;;;;;;;;23.80;90.00;;;;;;5033318;28;20003;-69
2022/05/18 11:36:47;;;;;;;;;;;23.90;90.10;;;;;;5012555;28;20211;-68
2022/05/18 11:39:21;;;;;;;;;;;23.90;90.20;;;;;;5002224;28;20274;-65
2022/05/18 11:41:56;;;;;;;;;;;23.80;89.70;;;;;;5013224;28;19928;-59
2022/05/18 11:44:37;;;;;;;;;;;23.90;90.10;;;;;;4998804;28;20392;-62
2022/05/18 11:47:17;;;;;;;;;;;23.90;90.00;;;;;;5016394;28;19932;-65
2022/05/18 11:49:57;;;;;;;;;;;24.10;88.40;;;;;;5015352;28;19925;-63
2022/05/18 11:52:22;;;;;;;;;;;24.20;87.90;;;;;;5017009;28;19932;-64
2022/05/18 11:54:59;;;;;;;;;;;24.20;88.30;;;;;;5012665;28;20224;-65
2022/05/18 11:57:25;;;;;;;;;;;24.20;87.10;;;;;;5015331;28;19925;-65
2022/05/18 11:59:57;;;;;;;;;;;24.20;87.00;;;;;;5015833;28;19923;-65
2022/05/18 12:02:25;;;;;;;;;;;24.30;86.50;;;;;;5013032;28;19913;-66
2022/05/18 12:04:58;;;;;;;;;;;24.20;86.00;;;;;;5032084;28;19917;-66
2022/05/18 12:07:49;;;;;;;;;;;24.30;84.70;;;;;;5012427;28;20032;-66
2022/05/18 12:10:25;;;;;;;;;;;24.30;83.30;;;;;;5014062;28;19921;-60
2022/05/18 12:13:07;;;;;;;;;;;24.30;84.20;;;;;;5021316;28;20078;-60
2022/05/18 12:15:32;;;;;;;;;;;24.30;83.50;;;;;;5065809;28;19925;-61
2022/05/18 12:18:03;;;;;;;;;;;24.30;83.40;;;;;;5039870;28;24737;-60
2022/05/18 12:20:52;;;;;;;;;;;24.40;83.90;;;;;;5032426;28;19988;-60
2022/05/18 12:23:19;;;;;;;;;;;24.40;82.50;;;;;;5037484;28;20405;-60
2022/05/18 12:25:45;;;;;;;;;;;24.40;81.70;;;;;;5042749;28;19952;-61
2022/05/18 12:28:12;;;;;;;;;;;24.50;81.30;;;;;;5040056;28;19956;-57
2022/05/18 12:30:39;;;;;;;;;;;24.50;80.60;;;;;;5038099;28;19917;-60
2022/05/18 12:33:06;;;;;;;;;;;24.60;78.70;;;;;;5040185;28;19913;-60
2022/05/18 12:35:32;;;;;;;;;;;24.70;78.90;;;;;;5037883;28;19913;-61
2022/05/18 12:37:58;;;;;;;;;;;24.80;80.20;;;;;;5040307;28;19939;-61
2022/05/18 12:40:31;;;;;;;;;;;24.80;79.20;;;;;;5038929;28;20500;-59
2022/05/18 12:43:02;;;;;;;;;;;24.80;77.90;;;;;;5039508;28;19917;-60
2022/05/18 12:45:27;;;;;;;;;;;24.90;75.40;;;;;;5038197;28;19917;-60
2022/05/18 12:48:11;;;;;;;;;;;25.00;75.90;;;;;;5039387;28;19927;-58
2022/05/18 12:50:49;;;;;;;;;;;25.00;74.30;;;;;;5036226;28;19917;-60
2022/05/18 12:53:17;;;;;;;;;;;25.00;73.50;;;;;;5040069;28;19927;-60
2022/05/18 12:55:44;;;;;;;;;;;25.10;75.40;;;;;;5037854;28;20398;-62
2022/05/18 12:58:10;;;;;;;;;;;25.20;74.70;;;;;;5039812;28;19912;-61
2022/05/18 13:00:44;;;;;;;;;;;25.30;76.80;;;;;;5037863;28;19943;-61
2022/05/18 13:03:10;;;;;;;;;;;25.50;77.20;;;;;;5038724;28;20031;-60
2022/05/18 13:05:39;;;;;;;;;;;25.70;76.00;;;;;;5040892;28;20428;-60
2022/05/18 13:08:17;;;;;;;;;;;25.80;76.10;;;;;;5071833;28;19924;-60
2022/05/18 13:11:01;;;;;;;;;;;25.80;75.80;;;;;;5041001;28;20399;-61
2022/05/18 13:13:27;;;;;;;;;;;25.90;76.00;;;;;;5041050;28;19956;-58
2022/05/18 13:15:59;;;;;;;;;;;25.90;75.10;;;;;;5038638;28;20436;-60
2022/05/18 13:18:28;;;;;;;;;;;26.00;75.80;;;;;;5039255;28;19975;-59
2022/05/18 13:20:56;;;;;;;;;;;26.00;75.80;;;;;;5038446;28;20543;-58
2022/05/18 13:23:28;;;;;;;;;;;26.10;75.30;;;;;;5039041;28;19920;-60
2022/05/18 13:26:22;;;;;;;;;;;26.20;75.10;;;;;;5038518;28;20043;-60
2022/05/18 13:28:49;;;;;;;;;;;26.20;73.90;;;;;;5035766;28;19929;-61
2022/05/18 13:31:15;;;;;;;;;;;26.10;74.30;;;;;;5038476;28;19972;-62
2022/05/18 13:33:40;;;;;;;;;;;26.20;72.40;;;;;;5039744;28;19953;-60
2022/05/18 13:36:06;;;;;;;;;;;26.20;72.90;;;;;;5037074;28;19921;-60
2022/05/18 13:38:32;;;;;;;;;;;26.30;73.40;;;;;;5037613;28;19921;-60
2022/05/18 13:41:08;;;;;;;;;;;26.30;70.90;;;;;;5054749;28;19916;-60
2022/05/18 13:43:36;;;;;;;;;;;26.30;71.90;;;;;;5034268;28;20289;-59
2022/05/18 13:46:04;;;;;;;;;;;26.30;72.60;;;;;;5041164;28;20417;-60
2022/05/18 13:48:30;;;;;;;;;;;26.30;71.20;;;;;;5035358;28;19921;-61
2022/05/18 13:50:58;;;;;;;;;;;26.40;71.50;;;;;;5038903;28;20306;-59
2022/05/18 13:53:26;;;;;;;;;;;26.40;71.40;;;;;;5038107;28;19921;-59
2022/05/18 13:55:54;;;;;;;;;;;26.40;71.50;;;;;;5038235;28;19981;-62
2022/05/18 13:58:21;;;;;;;;;;;26.50;71.10;;;;;;5038451;28;19913;-60
2022/05/18 14:00:53;;;;;;;;;;;26.40;69.80;;;;;;5036512;28;19920;-60
2022/05/18 14:03:20;;;;;;;;;;;26.40;70.10;;;;;;5040534;28;19959;-60
2022/05/18 14:05:45;;;;;;;;;;;26.40;69.10;;;;;;5038120;28;20412;-60
2022/05/18 14:08:33;;;;;;;;;;;26.40;69.70;;;;;;5036644;28;19913;-60
2022/05/18 14:10:59;;;;;;;;;;;26.40;70.30;;;;;;5040465;28;19927;-61
2022/05/18 14:13:25;;;;;;;;;;;26.50;69.70;;;;;;5038318;28;19917;-59
2022/05/18 14:15:51;;;;;;;;;;;26.50;69.60;;;;;;5038690;28;19940;-61
2022/05/18 14:18:19;;;;;;;;;;;26.60;69.30;;;;;;5039738;28;19913;-60
2022/05/18 14:20:49;;;;;;;;;;;26.60;68.60;;;;;;5038539;28;20683;-61
2022/05/18 14:23:26;;;;;;;;;;;26.60;69.70;;;;;;5039090;28;19966;-60
2022/05/18 14:25:54;;;;;;;;;;;26.60;69.20;;;;;;5036418;28;19970;-60
2022/05/18 14:28:25;;;;;;;;;;;26.60;68.40;;;;;;5036840;28;19920;-60
2022/05/18 14:30:52;;;;;;;;;;;26.70;68.20;;;;;;5040516;28;19927;-60
2022/05/18 14:33:29;;;;;;;;;;;26.70;67.90;;;;;;5039970;28;20412;-60
2022/05/18 14:35:55;;;;;;;;;;;26.70;68.10;;;;;;5038141;28;19931;-60
2022/05/18 14:38:24;;;;;;;;;;;26.80;67.10;;;;;;5040648;28;19917;-59
2022/05/18 14:40:50;;;;;;;;;;;26.90;67.20;;;;;;5039368;28;20396;-60
2022/05/18 14:43:16;;;;;;;;;;;26.90;67.50;;;;;;5038720;28;19916;-59